Contact Us:
Email: info@sawbill.com
Phone: (218)663-7150
Fax: (218)663-7980
Mail: 4620 Sawbill Trail
Box 2129
Tofte, MN 55615


Powered by
Movable Type 3.15
 
Sawbill Weather History Archives: June 2007
Current Sawbill Weather History | « May 2007 | July 2007 »


Date

High
Temperature

Low
Temperature

Barometric
Pressure

Relative
Humidity 7AM

9 AM
Temperature

Moisture

Snow

6/30/07 72 43 30.35 76% 48 0
6/29/07 81 48 30.26 76% 49 0
6/28/07 76 49 30.37 72% 58 0
6/27/07 67 50 30.27 74% 50 0
6/26/07 85 55 29.98 77% 58 .65"
6/25/07 84 59 30.02 85% 64 0
6/24/07 88 59 30.02 78% 59 0
6/23/07 90 55 29.88 85% 64 Trace
6/22/07 78 50 29.94 82% 54 0
6/21/07 77 48 30.17 81% 54 0
6/20/07 79 49 30.12 77% 54 0
6/19/07 62 44 30.00 82% 50 .11"
6/18/07 72 54 29.54 78% 54 .85"
6/17/07 63 52 29.63 83% 60 0
6/16/07 80 51 30.02 75% 52 0
6/15/07 87 61 29.97 87% 61 .3"
6/14/07 89 57 30.00 78% 63 0
6/13/07 89 55 30.09 74% 62 0
6/12/07 88 56 30.19 81% 60 0
6/11/07 83 54 30.21 82% 58 0
6/10/07 82 53 30.02 79% 54 0
6/9/07 81 52 30.02 80% 58 0
6/8/07 71 46 29.93 59% 58 0
6/7/07 72 49 29.83 86% 49 .92"
6/6/07 69 43 29.32 90% 53 1.2"
6/5/07 62 37 29.69 77% 43 0
6/4/07 69 46 29.76 66% 49 .13"
6/3/07 72 56 29.99 85% 57 .27"
6/2/07 71 57 29.71 88% 59 1.49"
6/1/07 81 50 29.85 78% 57 0
 


Home I Trip Planning I Rentals and Outfitting I Reservations I Campgrounds I Sawbill Store I Sawbill News I Contact

© 1997 - 2017, Sawbill Canoe Outfitters, Inc. I Privacy Policy